createdAt,value
2024-05-09T00:00:03.660Z,11.90
2024-05-09T00:05:03.313Z,12.15
2024-05-09T00:10:03.166Z,12.98
2024-05-09T00:15:02.342Z,12.73
2024-05-09T00:20:03.251Z,13.52
2024-05-09T00:25:02.273Z,14.10
2024-05-09T00:30:04.024Z,13.60
2024-05-09T00:35:02.461Z,14.18
2024-05-09T00:40:02.818Z,13.57
2024-05-09T00:45:02.950Z,13.13
2024-05-09T00:50:02.466Z,14.52
2024-05-09T00:55:02.308Z,13.80
2024-05-09T01:00:03.637Z,14.73
2024-05-09T01:05:03.049Z,14.25
2024-05-09T01:10:02.473Z,14.73
2024-05-09T01:15:02.622Z,14.55
2024-05-09T01:20:05.748Z,16.35
2024-05-09T01:25:02.134Z,15.27
2024-05-09T01:30:05.358Z,14.98
2024-05-09T01:35:03.175Z,15.85
2024-05-09T01:40:02.473Z,16.30
2024-05-09T01:45:02.967Z,16.92
2024-05-09T01:50:02.250Z,14.85
2024-05-09T01:55:05.831Z,15.13
2024-05-09T02:00:03.645Z,17.45
2024-05-09T02:05:03.143Z,15.82
2024-05-09T02:10:03.756Z,17.20
2024-05-09T02:15:02.679Z,17.02
2024-05-09T02:20:02.941Z,15.93
2024-05-09T02:25:02.152Z,16.90
2024-05-09T02:30:02.396Z,16.20
2024-05-09T02:35:02.967Z,15.95
2024-05-09T02:40:03.317Z,16.58
2024-05-09T02:45:02.602Z,15.73
2024-05-09T02:50:03.097Z,16.17
2024-05-09T02:55:02.874Z,15.63
2024-05-09T03:00:03.598Z,15.00
2024-05-09T03:05:02.888Z,14.95
2024-05-09T03:10:02.188Z,14.93
2024-05-09T03:15:02.501Z,16.65
2024-05-09T03:20:04.125Z,15.73
2024-05-09T03:25:02.490Z,17.25
2024-05-09T03:30:03.995Z,16.55
2024-05-09T03:35:02.799Z,16.70
2024-05-09T03:40:03.073Z,13.73
2024-05-09T03:45:02.322Z,15.10
2024-05-09T03:50:04.390Z,14.52
2024-05-09T03:55:02.565Z,17.85
2024-05-09T04:00:03.013Z,16.48
2024-05-09T04:05:02.293Z,16.33
2024-05-09T04:10:04.013Z,16.38
2024-05-09T04:15:02.324Z,16.95
2024-05-09T04:20:02.612Z,16.67
2024-05-09T04:25:02.792Z,16.73
2024-05-09T04:30:03.709Z,16.30
2024-05-09T04:35:02.927Z,15.43
2024-05-09T04:40:02.308Z,16.27
2024-05-09T04:45:02.509Z,16.15
2024-05-09T04:50:02.765Z,14.90
2024-05-09T04:55:03.002Z,15.07
2024-05-09T05:00:03.002Z,16.33
2024-05-09T05:05:02.350Z,14.20
2024-05-09T05:10:04.525Z,16.20
2024-05-09T05:15:02.906Z,15.25
2024-05-09T05:20:02.410Z,14.60
2024-05-09T05:25:02.808Z,14.70
2024-05-09T05:30:03.559Z,13.63
2024-05-09T05:35:03.057Z,16.00
2024-05-09T05:40:02.502Z,16.15
2024-05-09T05:45:02.729Z,14.38
2024-05-09T05:50:03.035Z,14.32
2024-05-09T05:55:02.281Z,15.27
2024-05-09T06:00:04.081Z,15.82
2024-05-09T06:05:02.449Z,16.20
2024-05-09T06:10:05.270Z,16.55
2024-05-09T06:15:02.248Z,16.67
2024-05-09T06:20:02.529Z,15.75
2024-05-09T06:25:02.795Z,17.40
2024-05-09T06:30:03.012Z,16.55
2024-05-09T06:35:02.903Z,15.60
2024-05-09T06:40:04.143Z,17.20
2024-05-09T06:45:02.680Z,16.63
2024-05-09T06:50:03.723Z,16.60
2024-05-09T06:55:02.967Z,17.10
2024-05-09T07:00:02.256Z,16.02
2024-05-09T07:05:02.633Z,15.82
2024-05-09T07:10:03.931Z,15.38
2024-05-09T07:15:02.115Z,16.25
2024-05-09T07:20:02.346Z,15.70
2024-05-09T07:25:02.572Z,15.93
2024-05-09T07:30:05.402Z,14.13
2024-05-09T07:35:02.771Z,14.68
2024-05-09T07:40:04.257Z,15.73
2024-05-09T07:45:21.254Z,15.93
2024-05-09T07:51:54.748Z,16.83
2024-05-09T07:55:02.851Z,15.35
2024-05-09T08:00:02.498Z,15.63
2024-05-09T08:05:02.821Z,14.30
2024-05-09T08:10:04.266Z,12.90
2024-05-09T08:15:02.489Z,12.75
2024-05-09T08:20:05.061Z,17.02
2024-05-09T08:25:02.775Z,14.13
2024-05-09T08:30:03.219Z,13.75
2024-05-09T08:35:02.558Z,12.82
2024-05-09T08:40:03.968Z,14.32
2024-05-09T08:45:02.224Z,13.70
2024-05-09T08:50:02.564Z,11.13
2024-05-09T08:55:02.372Z,15.70
2024-05-09T09:00:03.629Z,13.82
2024-05-09T09:05:03.071Z,14.45
2024-05-09T09:10:02.646Z,12.23
2024-05-09T09:15:02.385Z,11.35
2024-05-09T09:20:02.751Z,10.93
2024-05-09T09:25:03.021Z,10.68
2024-05-09T09:30:02.270Z,13.30
2024-05-09T09:35:02.554Z,13.40
2024-05-09T09:40:03.231Z,11.90
2024-05-09T09:45:05.481Z,12.02
2024-05-09T09:50:05.468Z,11.80
2024-05-09T09:55:02.479Z,13.00
2024-05-09T10:00:05.609Z,10.55
2024-05-09T10:05:02.651Z,10.63
2024-05-09T10:10:03.355Z,13.98
2024-05-09T10:15:02.277Z,13.25
2024-05-09T10:20:04.087Z,11.98
2024-05-09T10:25:04.811Z,12.75
2024-05-09T10:30:06.750Z,13.68
2024-05-09T10:35:08.185Z,12.63
2024-05-09T10:40:02.704Z,11.52
2024-05-09T10:45:02.391Z,9.85
2024-05-09T10:50:02.532Z,15.20
2024-05-09T10:55:05.576Z,11.98
2024-05-09T11:00:03.802Z,11.07
2024-05-09T11:05:03.082Z,11.30
2024-05-09T11:10:02.369Z,12.32
2024-05-09T11:15:02.566Z,13.98
2024-05-09T11:20:06.225Z,11.00
2024-05-09T11:25:03.027Z,9.68
2024-05-09T11:30:03.080Z,10.00
2024-05-09T11:35:02.311Z,10.82
2024-05-09T11:40:03.414Z,10.63
2024-05-09T11:45:02.505Z,10.85
2024-05-09T11:50:04.320Z,9.90
2024-05-09T11:55:03.102Z,8.52
2024-05-09T12:00:03.128Z,9.13
2024-05-09T12:05:02.456Z,10.60
2024-05-09T12:10:04.509Z,8.00
2024-05-09T12:15:02.847Z,8.23
2024-05-09T12:20:04.316Z,8.43
2024-05-09T12:25:02.171Z,7.88
2024-05-09T12:30:02.529Z,8.63
2024-05-09T12:35:02.777Z,9.40
2024-05-09T12:40:03.866Z,8.20
2024-05-09T12:45:02.134Z,7.32
2024-05-09T12:50:06.473Z,9.18
2024-05-09T12:55:02.438Z,7.18
2024-05-09T13:00:03.073Z,7.72
2024-05-09T13:05:02.882Z,7.65
2024-05-09T13:10:02.381Z,7.18
2024-05-09T13:15:02.619Z,7.28
2024-05-09T13:20:04.289Z,7.72
2024-05-09T13:25:02.695Z,6.43
2024-05-09T13:30:03.034Z,7.20
2024-05-09T13:35:02.238Z,7.88
2024-05-09T13:40:03.347Z,7.55
2024-05-09T13:45:02.506Z,7.05
2024-05-09T13:50:03.749Z,8.25
2024-05-09T13:55:02.964Z,9.23
2024-05-09T14:00:03.636Z,9.05
2024-05-09T14:05:03.193Z,7.65
2024-05-09T14:10:03.092Z,8.98
2024-05-09T14:15:06.101Z,7.40
2024-05-09T14:20:02.414Z,8.15
2024-05-09T14:25:03.219Z,9.05
2024-05-09T14:30:04.218Z,10.07
2024-05-09T14:35:02.812Z,9.43
2024-05-09T14:40:05.102Z,8.63
2024-05-09T14:45:02.923Z,9.00
2024-05-09T14:50:05.354Z,10.10
2024-05-09T14:55:02.912Z,9.25
2024-05-09T15:00:05.100Z,9.25
2024-05-09T15:05:02.695Z,8.25
2024-05-09T15:10:04.703Z,9.55
2024-05-09T15:15:02.928Z,8.80
2024-05-09T15:20:02.276Z,10.88
2024-05-09T15:25:02.541Z,9.38
2024-05-09T15:30:04.405Z,9.23
2024-05-09T15:35:02.665Z,8.30
2024-05-09T15:40:04.184Z,9.00
2024-05-09T15:45:02.549Z,8.85
2024-05-09T15:50:03.085Z,8.05
2024-05-09T15:55:02.617Z,8.73
2024-05-09T16:00:04.546Z,8.68
2024-05-09T16:05:03.257Z,8.25
2024-05-09T16:10:02.624Z,7.35
2024-05-09T16:15:02.813Z,8.75
2024-05-09T16:20:06.819Z,7.25
2024-05-09T16:25:02.220Z,7.38
2024-05-09T16:30:04.042Z,6.32
2024-05-09T16:35:03.054Z,6.65
2024-05-09T16:40:02.640Z,7.03
2024-05-09T16:45:02.307Z,6.50
2024-05-09T16:50:03.729Z,7.28
2024-05-09T16:55:03.073Z,7.22
2024-05-09T17:00:02.449Z,6.97
2024-05-09T17:05:02.596Z,7.97
2024-05-09T17:10:03.092Z,8.23
2024-05-09T17:15:03.268Z,7.70
2024-05-09T17:20:03.678Z,7.50
2024-05-09T17:25:04.008Z,6.63
2024-05-09T17:30:03.504Z,8.00
2024-05-09T17:35:03.102Z,8.30
2024-05-09T17:40:02.653Z,7.90
2024-05-09T17:45:02.280Z,7.55
2024-05-09T17:50:02.624Z,6.95
2024-05-09T17:55:03.177Z,7.25
2024-05-09T18:00:04.034Z,7.53
2024-05-09T18:05:02.747Z,7.65
2024-05-09T18:10:02.280Z,10.35
2024-05-09T18:15:02.578Z,8.50
2024-05-09T18:20:02.975Z,7.22
2024-05-09T18:25:02.800Z,7.18
2024-05-09T18:30:03.183Z,7.93
2024-05-09T18:35:02.753Z,6.55
2024-05-09T18:40:03.388Z,6.40
2024-05-09T18:45:02.340Z,8.35
2024-05-09T18:50:02.555Z,9.05
2024-05-09T18:55:03.119Z,8.18
2024-05-09T19:00:02.296Z,7.53
2024-05-09T19:05:02.663Z,7.72
2024-05-09T19:10:03.392Z,8.73
2024-05-09T19:15:02.718Z,9.68
2024-05-09T19:20:04.513Z,8.35
2024-05-09T19:25:02.813Z,9.48
2024-05-09T19:35:02.316Z,7.97
2024-05-09T19:40:02.640Z,8.57
2024-05-09T19:45:03.091Z,9.38
2024-05-09T19:50:02.234Z,9.70
2024-05-09T19:55:03.631Z,8.57
2024-05-09T20:00:04.294Z,9.65
2024-05-09T20:05:03.113Z,9.10
2024-05-09T20:10:05.125Z,10.38
2024-05-09T20:15:02.429Z,8.98
2024-05-09T20:20:03.672Z,9.55
2024-05-09T20:25:03.224Z,9.98
2024-05-09T20:30:03.075Z,10.20
2024-05-09T20:35:02.395Z,9.77
2024-05-09T20:40:03.722Z,10.23
2024-05-09T20:45:03.035Z,11.80
2024-05-09T20:50:02.296Z,12.32
2024-05-09T20:55:02.482Z,12.88
2024-05-09T21:00:03.403Z,10.60
2024-05-09T21:05:04.225Z,11.45
2024-05-09T21:10:03.703Z,11.20
2024-05-09T21:15:02.686Z,11.32
2024-05-09T21:20:03.602Z,11.90
2024-05-09T21:25:02.940Z,10.85
2024-05-09T21:30:02.517Z,12.40
2024-05-09T21:35:02.760Z,12.13
2024-05-09T21:40:03.901Z,13.02
2024-05-09T21:45:02.297Z,11.80
2024-05-09T21:50:02.484Z,12.57
2024-05-09T21:55:02.779Z,11.73
2024-05-09T22:00:04.454Z,11.75
2024-05-09T22:05:03.132Z,13.52
2024-05-09T22:10:02.639Z,12.45
2024-05-09T22:15:02.323Z,12.32
2024-05-09T22:20:02.716Z,13.68
2024-05-09T22:25:02.611Z,14.30
2024-05-09T22:30:04.059Z,14.55
2024-05-09T22:35:03.073Z,14.32
2024-05-09T22:40:04.737Z,13.75
2024-05-09T22:45:02.580Z,13.32
2024-05-09T22:50:02.929Z,13.45
2024-05-09T22:55:02.134Z,13.15
2024-05-09T23:00:02.547Z,12.13
2024-05-09T23:05:02.593Z,11.73
2024-05-09T23:10:04.361Z,11.40
2024-05-09T23:15:02.663Z,11.43
2024-05-09T23:20:05.149Z,12.77
2024-05-09T23:25:02.481Z,12.43
2024-05-09T23:30:04.562Z,12.07
2024-05-09T23:35:03.199Z,13.00
2024-05-09T23:40:03.868Z,13.30
2024-05-09T23:45:02.965Z,12.93
2024-05-09T23:50:05.014Z,14.27
2024-05-09T23:55:02.914Z,15.48
